Strona główna
METAR-TAF:

METAR-TAF

Lotnisko :

Port lotniczy Belfast-City George Best

Belfast, Irlandia Północna

Szerokość geograficzna: 54-36N, Długość geograficzna: 005-53W, wysokość: 5 m

Aktualna obserwacja pogody

Raport powstał 15 minut temu, godzina 05:20 UTC
Wiatr 15 kt od południowy zachód
Temperatura 6°C
Wilgotność 87%
Ciśnienie 990 hPa
Widzialność: 7000 m
słaby deszcz

METAR: EGAC 170520Z AUTO 22015KT 7000 -RA FEW016/// SCT023/// BKN029/// 06/04 Q0990

czas: 05:35 (05:35 UTC)

Prognoza

Raport powstał 35 minut temu, godzina 05:00 UTC
Prognoza ważna od 17 godzina 06 UTC do 17 godzina 15 UTC
Wiatr 16 kt od południowo-południowy zachód
Widzialność 10 km lub więcej
Mało chmury na wysokości 2000 ft
Rozproszone chmury na wysokości 3000 ft
Przejściowo
od 17 godzina 06 UTC do 17 godzina 15 UTC
Wiatr 20 kt od południowy zachód w porywach dochodzący do 30 kt
Widzialność: 6000 m
przelotny opad deszczu

TAF: EGAC 170500Z 1706/1715 21016KT 9999 FEW020 SCT030 TEMPO 1706/1715 23020G30KT 6000 SHRA

Obserwacja i prognoza pogody dla ponad 4000 lotnisk (raport METAR i TAF).

Dostępne stacje oznaczono żółtymi i czerwonymi punktami na mapie.

Najedź kursorem aby zobaczyć nazwę stacji.

Kliknij aby zobaczyć obserwacje i prognozy pogody.

Aby zmienić mapę: kliknij na zielony przycisk z czarnym krzyżykiem, aby powiększyć; na zielony przycisk z myślnikiem, aby pomniejszyć; na zielone strzałki, aby przejść do map sąsiednich.


METAR-TAF: